Mhondoro, Zimbabwe

2:50 PM CAT on May 23, 2015 (GMT +0200)
Masvingo | | Change Station
CLOSE
Current Station
Airport
Location: Masvingo,
Elevation: 3593 ft
Nearby Weather Stations

Elev 3593 ft 20.06 °S, 30.86 °E | Updated 50 minutes ago

Scattered Clouds
Scattered Clouds
70 °F
Feels Like 70 °F
N
8
Wind Variable Wind from ESE

Today
High -- | Low -- °F
--% Chance of Precip.
Yesterday
High -- | Low -- °F
Precip. -- in
6:20 AM 5:27 PM
Waxing Crescent, 29% visible
Pressure 30.30 in
Visibility 6.2 miles
Clouds Scattered Clouds 4000 ft
Dew Point 50 °F
Humidity 49%
Rainfall 0.00 in
Snow Depth Not available.
UV 5 out of 12
Pollen Not available.
Air Quality Not available.
Flu Activity Not available.
METAR FVMV 231200Z 12007KT 9999 SCT040 21/10 Q1026

More Conditions Fewer Conditions

Pressure 30.30 in
Visibility 6.2 miles
Clouds Scattered Clouds 4000 ft
Dew Point 50 °F
Humidity 49%
Rainfall 0.00 in
Snow Depth Not available.
UV 5 out of 12
Pollen Not available.
Air Quality Not available.
Flu Activity Not available.
METAR FVMV 231200Z 12007KT 9999 SCT040 21/10 Q1026

More Conditions Fewer Conditions

10-Day Weather Forecast

Almanac

Astronomy

May. 23, 2015 Rise Set
Actual Time
Civil Twilight
Nautical Twilight
Astronomical Twilight
Moon
Length of Visible Light
Length of Day
Tomorrow will be .
, % of the Moon is Illuminated

Today's Extremes

Country Highs Country Lows

Community

WunderPhotos

Upload Photos

1,823,442 photos uploaded!

WunderBlogs® & News

Nearby

Air Quality

  Air Quality AQ Index Pollutant
Not available.

Snow Depth

Station Depth Elevation

Earthquake Activity

City Distance Mag. Time & Date
Minimum magnitude displayed is 2.5.

Coastal Water Temperatures

Place Temperature

Stations

Nearby Weather Stations

Station Location Temp. Windchill Dew Point Humidity Wind Precip. Elev Updated Type